Time;durP1;ratioP1;P1;durP2;ratioP2;P2;SDS_P1;SDS_P2;PMS_P1;PMS_P2;Temp;Humidity;BMP_temperature;BMP_pressure;BME280_temperature;BME280_humidity;BME280_pressure;Samples;Min_cycle;Max_cycle;Signal;HPM_P1;HPM_P2
2023/10/09 00:06:37;;;;;;;2.53;2.08;;;;;;;18.35;51.54;95384.81;5135954;27;20560;-66
2023/10/09 00:09:19;;;;;;;4.78;2.30;;;;;;;18.33;51.78;95384.38;5133011;28;20195;-66
2023/10/09 00:11:48;;;;;;;4.28;2.00;;;;;;;18.32;51.79;95384.81;5132637;28;20234;-66
2023/10/09 00:14:18;;;;;;;5.18;2.28;;;;;;;18.24;51.79;95381.19;5133045;27;20587;-66
2023/10/09 00:16:56;;;;;;;5.10;2.35;;;;;;;18.20;51.85;95388.75;5132468;28;20205;-66
2023/10/09 00:19:30;;;;;;;4.43;2.17;;;;;;;18.19;51.65;95378.78;5132596;28;20209;-66
2023/10/09 00:22:04;;;;;;;4.35;2.22;;;;;;;18.14;51.82;95379.97;5133231;27;20273;-66
2023/10/09 00:24:44;;;;;;;4.18;2.10;;;;;;;18.14;52.05;95376.38;5133544;27;20221;-66
2023/10/09 00:27:14;;;;;;;5.28;1.95;;;;;;;18.10;51.83;95373.56;5132307;28;20281;-66
2023/10/09 00:29:44;;;;;;;5.70;2.63;;;;;;;18.07;51.97;95376.34;5132344;28;20196;-66
2023/10/09 00:32:22;;;;;;;4.93;2.20;;;;;;;18.04;51.69;95378.72;5132003;28;20195;-66
2023/10/09 00:34:51;;;;;;;6.68;2.33;;;;;;;18.03;51.91;95360.38;5131855;28;20603;-66
2023/10/09 00:37:23;;;;;;;5.28;2.63;;;;;;;18.02;52.22;95369.97;5132099;27;20540;-66
2023/10/09 00:39:55;;;;;;;5.75;2.20;;;;;;;18.01;51.97;95370.34;5132931;27;20198;-66
2023/10/09 00:42:29;;;;;;;2.97;2.13;;;;;;;17.96;52.16;95368.75;5132615;27;20214;-66
2023/10/09 00:45:02;;;;;;;4.35;2.10;;;;;;;17.92;52.08;95376.31;5131786;28;20218;-66
2023/10/09 00:47:35;;;;;;;3.58;2.10;;;;;;;17.90;52.10;95384.28;5131921;28;20202;-66
2023/10/09 00:50:10;;;;;;;4.93;2.10;;;;;;;17.88;52.23;95366.31;5131775;28;20561;-66
2023/10/09 00:52:50;;;;;;;2.95;2.30;;;;;;;17.85;52.34;95369.91;5132921;27;20187;-66
2023/10/09 00:55:27;;;;;;;3.33;2.10;;;;;;;17.83;52.43;95366.69;5131998;28;20244;-66
2023/10/09 00:58:09;;;;;;;3.83;2.22;;;;;;;17.80;52.44;95373.88;5131666;28;20199;-66
2023/10/09 01:00:46;;;;;;;3.97;1.98;;;;;;;17.78;52.44;95385.41;5131554;28;20191;-66
2023/10/09 01:03:23;;;;;;;6.57;2.13;;;;;;;17.74;52.55;95390.16;5131778;28;20286;-66
2023/10/09 01:05:57;;;;;;;2.03;1.70;;;;;;;17.70;52.05;95391.31;5126297;28;20237;-66
2023/10/09 01:08:30;;;;;;;2.42;1.73;;;;;;;17.64;52.29;95390.09;5118885;28;20181;-66
2023/10/09 01:11:09;;;;;;;2.47;1.60;;;;;;;17.58;52.36;95400.84;5117381;28;20331;-66
2023/10/09 01:13:52;;;;;;;3.80;2.00;;;;;;;17.55;51.94;95398.81;5100290;28;20207;-66
2023/10/09 01:16:23;;;;;;;2.97;1.70;;;;;;;17.50;51.95;95408.38;5118554;28;20184;-66
2023/10/09 01:18:52;;;;;;;2.42;2.22;;;;;;;17.42;51.83;95423.44;5118423;28;20274;-66
2023/10/09 01:21:26;;;;;;;2.50;1.77;;;;;;;17.40;51.53;95419.44;5117913;28;20217;-66
2023/10/09 01:24:07;;;;;;;2.17;1.70;;;;;;;17.37;51.68;95407.06;5118367;27;20249;-66
2023/10/09 01:26:44;;;;;;;3.65;2.42;;;;;;;17.33;51.52;95403.47;5117565;28;20223;-66
2023/10/09 01:29:18;;;;;;;3.72;1.90;;;;;;;17.29;51.29;95408.22;5118541;28;20311;-66
2023/10/09 01:34:48;;;;;;;3.90;1.75;;;;;;;17.17;51.66;95428.81;5116363;27;20210;-67
2023/10/09 01:37:43;;;;;;;3.67;2.08;;;;;;;17.11;51.83;95449.09;5117307;28;20223;-66
2023/10/09 01:40:25;;;;;;;4.43;2.22;;;;;;;17.11;52.20;95454.69;5117099;28;20191;-66
2023/10/09 01:42:52;;;;;;;3.38;2.00;;;;;;;17.06;51.73;95455.81;5117155;28;20530;-66
2023/10/09 01:45:27;;;;;;;3.30;1.90;;;;;;;16.98;51.86;95443.00;5117152;28;20224;-67
2023/10/09 01:47:56;;;;;;;1.92;1.77;;;;;;;16.93;51.99;95446.16;5116732;28;20252;-66
2023/10/09 01:50:31;;;;;;;2.22;1.98;;;;;;;16.92;52.15;95447.34;5117040;28;20295;-66
2023/10/09 01:53:01;;;;;;;2.45;1.90;;;;;;;16.88;52.36;95461.22;5116970;28;20221;-67
2023/10/09 01:55:34;;;;;;;3.28;1.92;;;;;;;16.86;52.81;95454.47;5117460;27;20622;-66
2023/10/09 01:58:15;;;;;;;3.00;1.80;;;;;;;16.83;52.97;95464.38;5116501;28;20611;-66
2023/10/09 02:00:52;;;;;;;2.97;2.03;;;;;;;16.78;52.77;95459.97;5117181;28;20203;-66
2023/10/09 02:03:26;;;;;;;2.28;2.05;;;;;;;16.76;53.17;95464.31;5116804;28;20545;-66
2023/10/09 02:06:24;;;;;;;4.18;2.20;;;;;;;16.70;53.33;95477.75;5116404;28;20231;-66
2023/10/09 02:08:49;;;;;;;4.22;2.00;;;;;;;16.62;52.88;95481.63;5117105;28;20195;-66
2023/10/09 02:11:24;;;;;;;4.32;1.92;;;;;;;16.58;52.60;95500.31;5117171;28;20184;-66
2023/10/09 02:14:00;;;;;;;3.60;2.28;;;;;;;16.54;53.27;95497.47;5116447;28;20199;-66
2023/10/09 02:16:29;;;;;;;3.72;1.83;;;;;;;16.54;53.10;95500.25;5116860;28;20272;-67
2023/10/09 02:18:58;;;;;;;2.47;1.92;;;;;;;16.50;52.72;95491.06;5098260;28;20215;-66
2023/10/09 02:21:33;;;;;;;2.80;2.05;;;;;;;16.42;52.79;95483.81;5116569;28;20192;-66
2023/10/09 02:24:06;;;;;;;2.22;1.70;;;;;;;16.36;52.87;95477.78;5117156;28;20218;-66
2023/10/09 02:27:06;;;;;;;4.00;1.90;;;;;;;16.36;53.00;95482.56;5116182;28;20216;-66
2023/10/09 02:29:35;;;;;;;3.97;1.90;;;;;;;16.35;52.82;95490.09;5116926;28;20244;-66
2023/10/09 02:32:25;;;;;;;2.60;1.90;;;;;;;16.30;52.59;95497.97;5116036;28;20198;-66
2023/10/09 02:34:55;;;;;;;3.92;1.80;;;;;;;16.21;52.51;95494.72;5116455;28;20196;-66
2023/10/09 02:37:25;;;;;;;2.55;1.80;;;;;;;16.14;52.60;95495.41;5116636;28;20186;-66
2023/10/09 02:39:53;;;;;;;3.85;1.80;;;;;;;16.11;52.49;95499.75;5116838;28;20183;-66
2023/10/09 02:42:31;;;;;;;2.00;1.90;;;;;;;16.10;53.13;95514.03;5116508;28;20188;-66
2023/10/09 02:44:59;;;;;;;1.83;1.67;;;;;;;16.05;52.76;95519.94;5116706;28;20290;-66
2023/10/09 02:47:29;;;;;;;2.30;1.73;;;;;;;16.01;52.85;95521.88;5115856;28;20195;-66
2023/10/09 02:50:06;;;;;;;2.97;1.95;;;;;;;15.99;53.01;95527.03;5116792;28;20191;-66
2023/10/09 02:52:40;;;;;;;1.77;1.67;;;;;;;15.97;52.83;95523.81;5116460;28;20508;-66
2023/10/09 02:55:13;;;;;;;2.30;1.60;;;;;;;15.95;53.05;95520.59;5115354;28;20264;-66
2023/10/09 02:57:52;;;;;;;3.80;1.70;;;;;;;15.93;52.74;95532.09;5116591;28;20192;-66
2023/10/09 03:00:29;;;;;;;1.90;1.70;;;;;;;15.88;53.21;95535.22;5116481;28;20190;-66
2023/10/09 03:02:58;;;;;;;3.35;1.70;;;;;;;15.87;52.74;95534.41;5115695;28;20199;-66
2023/10/09 03:05:28;;;;;;;2.15;1.77;;;;;;;15.79;52.66;95538.25;5116381;27;20235;-65
2023/10/09 03:07:56;;;;;;;2.40;2.20;;;;;;;15.72;53.03;95529.81;5115490;28;20192;-65
2023/10/09 03:10:25;;;;;;;1.90;1.80;;;;;;;15.62;52.68;95536.78;5115242;28;20203;-66
2023/10/09 03:13:05;;;;;;;2.03;1.83;;;;;;;15.56;52.59;95543.03;5116312;28;20190;-66
2023/10/09 03:15:35;;;;;;;2.45;2.03;;;;;;;15.49;52.78;95537.38;5115323;28;20210;-66
2023/10/09 03:18:04;;;;;;;2.60;1.70;;;;;;;15.45;53.00;95537.31;5115283;28;20203;-66
2023/10/09 03:20:31;;;;;;;2.28;1.83;;;;;;;15.41;53.21;95544.81;5115050;28;20195;-65
2023/10/09 03:23:01;;;;;;;1.67;1.27;;;;;;;15.45;52.77;95550.41;5115806;28;20619;-65
2023/10/09 03:25:30;;;;;;;2.20;1.63;;;;;;;15.52;52.75;95564.44;5114552;28;20219;-65
2023/10/09 03:28:01;;;;;;;2.05;1.73;;;;;;;15.56;52.99;95562.50;5114320;28;20200;-66
2023/10/09 03:30:27;;;;;;;2.22;1.55;;;;;;;15.52;52.76;95559.66;5114986;28;20203;-66
2023/10/09 03:33:00;;;;;;;3.80;1.90;;;;;;;15.51;52.57;95560.84;5115035;28;20192;-66
2023/10/09 03:35:33;;;;;;;2.92;1.77;;;;;;;15.46;52.69;95552.00;5115099;28;20313;-66
2023/10/09 03:38:11;;;;;;;2.70;1.80;;;;;;;15.33;52.88;95563.34;5114944;28;20203;-66
2023/10/09 03:40:44;;;;;;;1.95;1.80;;;;;;;15.29;53.13;95573.59;5115224;28;20203;-66
2023/10/09 03:43:22;;;;;;;2.53;1.98;;;;;;;15.32;53.06;95581.19;5115038;28;20234;-66
2023/10/09 03:45:57;;;;;;;2.28;1.70;;;;;;;15.37;52.47;95577.28;5114782;28;20211;-66
2023/10/09 03:48:32;;;;;;;4.03;1.63;;;;;;;15.36;52.08;95579.28;5115360;28;20206;-66
2023/10/09 03:51:11;;;;;;;2.15;1.75;;;;;;;15.29;52.24;95573.59;5115498;28;20201;-65
2023/10/09 03:53:42;;;;;;;1.98;1.73;;;;;;;15.26;52.48;95579.09;5116024;28;20179;-65
2023/10/09 03:56:13;;;;;;;3.33;1.70;;;;;;;15.25;52.21;95583.84;5114727;28;20199;-65
2023/10/09 03:58:49;;;;;;;1.80;1.65;;;;;;;15.16;51.86;95584.06;5114841;28;20453;-64
2023/10/09 04:01:23;;;;;;;1.63;1.52;;;;;;;15.11;52.32;95580.81;5115404;28;20302;-64
2023/10/09 04:03:55;;;;;;;1.65;1.40;;;;;;;15.12;51.97;95590.75;5115535;28;20248;-64
2023/10/09 04:06:28;;;;;;;3.25;1.70;;;;;;;15.09;52.20;95580.38;5115706;28;20245;-64
2023/10/09 04:09:00;;;;;;;2.03;1.50;;;;;;;15.04;51.66;95584.25;5115637;28;20219;-64
2023/10/09 04:11:26;;;;;;;2.38;1.60;;;;;;;14.96;51.96;95588.09;5115321;28;20211;-64
2023/10/09 04:14:00;;;;;;;1.48;1.30;;;;;;;14.87;51.83;95588.31;5131817;28;20264;-64
2023/10/09 04:16:51;;;;;;;2.47;1.42;;;;;;;14.79;52.00;95578.25;5114525;28;20195;-64
2023/10/09 04:19:24;;;;;;;1.48;1.38;;;;;;;14.76;51.76;95576.19;5114762;28;20293;-64
2023/10/09 04:21:55;;;;;;;1.58;1.48;;;;;;;14.69;51.47;95574.09;5115109;28;20190;-64
2023/10/09 04:24:23;;;;;;;2.17;1.50;;;;;;;14.63;51.89;95580.28;5131983;28;20206;-65
2023/10/09 04:26:55;;;;;;;2.08;1.50;;;;;;;14.59;51.79;95588.56;5114725;28;20235;-65
2023/10/09 04:29:27;;;;;;;2.63;1.42;;;;;;;14.56;51.70;95594.03;5115499;28;20184;-65
2023/10/09 04:31:59;;;;;;;1.95;1.60;;;;;;;14.61;51.81;95588.19;5115278;28;20195;-65
2023/10/09 04:34:48;;;;;;;2.30;1.75;;;;;;;14.62;51.04;95589.81;5115189;28;20188;-65
2023/10/09 04:37:36;;;;;;;1.42;1.20;;;;;;;14.55;51.02;95584.91;5114522;28;20280;-65
2023/10/09 04:40:41;;;;;;;2.65;1.60;;;;;;;14.53;51.27;95583.69;5114322;28;20513;-65
2023/10/09 04:43:10;;;;;;;1.38;1.30;;;;;;;14.56;51.23;95588.47;5119054;28;20196;-64
2023/10/09 04:48:38;;;;;;;1.92;1.55;;;;;;;14.65;50.70;95595.41;5117918;28;20517;-65
2023/10/09 04:51:34;;;;;;;2.28;1.63;;;;;;;14.61;50.10;95599.31;5118173;28;20207;-65
2023/10/09 04:56:52;;;;;;;1.58;1.25;;;;;;;14.45;49.17;95608.50;5117887;28;20195;-65
2023/10/09 04:59:24;;;;;;;1.30;1.20;;;;;;;14.37;49.13;95597.59;5118203;28;20244;-65
2023/10/09 05:02:04;;;;;;;1.42;1.33;;;;;;;14.30;49.09;95589.91;5118498;28;20626;-65
2023/10/09 05:04:41;;;;;;;1.85;1.30;;;;;;;14.31;49.29;95605.41;5117433;28;20271;-65
2023/10/09 05:07:50;;;;;;;1.75;1.33;;;;;;;14.31;49.21;95610.97;5118301;28;20540;-64
2023/10/09 05:10:17;;;;;;;3.45;1.50;;;;;;;14.37;48.99;95622.56;5118285;28;20282;-66
2023/10/09 05:12:56;;;;;;;2.72;1.40;;;;;;;14.36;48.66;95618.19;5118652;28;20211;-65
2023/10/09 05:15:28;;;;;;;2.08;1.70;;;;;;;14.34;48.49;95618.56;5117303;28;20195;-65
2023/10/09 05:18:09;;;;;;;2.03;1.55;;;;;;;14.31;48.51;95622.06;5118463;28;20195;-65
2023/10/09 05:23:44;;;;;;;3.45;1.80;;;;;;;14.26;48.30;95627.88;5082902;28;20207;-65
2023/10/09 05:28:58;;;;;;;1.52;1.40;;;;;;;14.33;48.96;95633.59;5118004;27;20222;-65
2023/10/09 05:31:56;;;;;;;3.22;1.67;;;;;;;14.38;48.31;95638.88;5118429;28;20203;-65
2023/10/09 05:35:05;;;;;;;5.00;2.00;;;;;;;14.40;48.54;95650.38;5118261;28;20220;-65
2023/10/09 05:37:32;;;;;;;2.42;2.05;;;;;;;14.44;48.38;95656.81;5116856;28;20202;-65
2023/10/09 05:40:22;;;;;;;1.85;1.75;;;;;;;14.45;47.92;95655.66;5117075;28;20207;-65
2023/10/09 05:42:59;;;;;;;3.67;2.30;;;;;;;14.37;47.60;95653.09;5116865;28;20202;-65
2023/10/09 05:51:41;;;;;;;1.85;1.50;;;;;;;14.25;47.58;95667.09;5105043;27;20208;-65
2023/10/09 06:08:12;;;;;;;4.57;1.60;;;;;;;14.45;46.21;95691.75;5117324;28;20177;-65
2023/10/09 06:10:41;;;;;;;1.80;1.70;;;;;;;14.48;46.18;95697.72;5116714;28;20620;-65
2023/10/09 06:18:53;;;;;;;1.50;1.40;;;;;;;14.48;45.80;95715.19;5117150;28;20172;-65
2023/10/09 06:24:22;;;;;;;2.25;1.42;;;;;;;14.48;45.79;95717.94;5081333;28;20231;-65
2023/10/09 06:29:38;;;;;;;1.98;1.88;;;;;;;14.57;45.16;95713.03;5116543;28;20187;-65
2023/10/09 06:35:15;;;;;;;1.70;1.60;;;;;;;14.52;45.39;95729.97;5116757;28;20184;-65
2023/10/09 06:43:31;;;;;;;1.65;1.55;;;;;;;14.55;44.42;95720.91;5116631;28;20260;-65
2023/10/09 06:46:37;;;;;;;2.25;1.80;;;;;;;14.58;44.66;95717.41;5116752;28;20203;-65
2023/10/09 06:48:56;;;;;;;2.35;1.65;;;;;;;14.60;44.54;95711.53;5115872;28;20223;-65
2023/10/09 06:54:15;;;;;;;2.03;1.58;;;;;;;14.71;43.00;95717.31;5116303;28;20248;-65
2023/10/09 07:00:51;;;;;;;1.55;1.45;;;;;;;14.72;42.46;95724.47;5081112;28;20200;-65
2023/10/09 07:02:45;;;;;;;4.03;1.98;;;;;;;14.79;41.97;95719.88;5116072;28;20212;-65
2023/10/09 07:05:17;;;;;;;1.95;1.83;;;;;;;14.85;41.97;95718.41;5114883;28;20712;-64
2023/10/09 07:07:54;;;;;;;1.67;1.58;;;;;;;14.89;41.09;95707.38;5115466;28;20251;-65
2023/10/09 07:13:11;;;;;;;1.90;1.80;;;;;;;15.02;41.02;95719.13;5117567;27;20534;-65
2023/10/09 07:18:49;;;;;;;1.60;1.50;;;;;;;15.15;40.03;95724.19;5115144;28;20180;-65
2023/10/09 07:21:27;;;;;;;2.33;1.92;;;;;;;15.23;40.23;95725.13;5116034;27;20195;-65
2023/10/09 07:24:14;;;;;;;1.77;1.60;;;;;;;15.24;39.81;95732.28;5115305;28;20222;-65
2023/10/09 07:26:53;;;;;;;2.03;1.60;;;;;;;15.20;40.28;95727.84;5115154;28;20300;-65
2023/10/09 07:29:27;;;;;;;1.50;1.40;;;;;;;15.23;40.31;95729.88;5116196;28;20198;-65
2023/10/09 07:32:12;;;;;;;2.95;1.70;;;;;;;15.30;40.18;95721.69;5116432;27;20199;-65
2023/10/09 07:34:58;;;;;;;2.13;1.60;;;;;;;15.35;39.08;95733.28;5113268;28;20206;-65
2023/10/09 07:37:30;;;;;;;1.88;1.65;;;;;;;15.40;38.98;95733.00;5115689;28;20176;-66
2023/10/09 07:39:58;;;;;;;3.85;1.50;;;;;;;15.47;38.49;95724.00;5115941;27;20199;-64
2023/10/09 07:42:33;;;;;;;2.25;1.75;;;;;;;15.54;38.80;95717.75;5114734;28;20629;-67
2023/10/09 07:45:54;;;;;;;1.60;1.50;;;;;;;15.65;38.95;95718.78;5115866;28;20240;-67
2023/10/09 07:48:14;;;;;;;1.60;1.50;;;;;;;15.75;38.45;95722.94;5115228;28;20192;-68
2023/10/09 07:50:57;;;;;;;1.67;1.58;;;;;;;15.90;38.32;95719.22;5115894;28;20193;-66
2023/10/09 07:53:43;;;;;;;1.70;1.60;;;;;;;16.01;38.23;95713.81;5115818;28;20202;-67
2023/10/09 07:56:13;;;;;;;1.80;1.70;;;;;;;16.12;38.18;95723.97;5114912;28;20226;-66
2023/10/09 07:58:52;;;;;;;2.92;1.92;;;;;;;16.19;36.94;95737.19;5115125;28;20287;-66
2023/10/09 08:01:35;;;;;;;1.90;1.63;;;;;;;16.20;36.68;95724.91;5114929;28;20188;-66
2023/10/09 08:04:05;;;;;;;1.92;1.73;;;;;;;16.28;36.84;95732.16;5115420;27;20199;-66
2023/10/09 08:06:43;;;;;;;1.40;1.30;;;;;;;16.32;36.12;95744.16;5114994;28;20392;-66
2023/10/09 08:14:59;;;;;;;2.28;2.10;;;;;;;16.57;35.72;95724.25;5114393;28;20265;-66
2023/10/09 08:17:28;;;;;;;2.08;1.75;;;;;;;16.56;35.58;95734.59;5118724;28;20252;-66
2023/10/09 08:19:58;;;;;;;1.73;1.63;;;;;;;16.66;35.86;95726.75;5118764;28;20256;-67
2023/10/09 08:25:27;;;;;;;1.60;1.50;;;;;;;16.90;35.57;95723.53;5118378;28;20207;-66
2023/10/09 08:27:57;;;;;;;1.60;1.50;;;;;;;16.98;35.47;95718.88;5118639;28;20226;-66
2023/10/09 08:30:40;;;;;;;2.30;1.40;;;;;;;17.11;35.50;95722.22;5119559;28;20248;-66
2023/10/09 08:36:01;;;;;;;1.42;1.35;;;;;;;17.24;34.97;95713.22;5119185;28;20282;-66
2023/10/09 08:38:33;;;;;;;1.88;1.65;;;;;;;17.39;35.15;95697.44;5118717;28;20200;-66
2023/10/09 08:41:23;;;;;;;2.00;1.80;;;;;;;17.49;34.71;95687.59;5118402;28;20208;-66
2023/10/09 08:43:52;;;;;;;1.60;1.50;;;;;;;17.49;33.88;95688.41;5118613;28;20200;-67
2023/10/09 08:46:26;;;;;;;2.60;1.50;;;;;;;17.57;33.54;95680.91;5118016;28;20215;-67
2023/10/09 08:48:56;;;;;;;2.10;1.58;;;;;;;17.60;32.83;95682.13;5118861;28;20278;-67
2023/10/09 08:51:29;;;;;;;1.50;1.40;;;;;;;17.60;33.23;95677.34;5135520;27;20207;-66
2023/10/09 08:53:57;;;;;;;2.20;1.25;;;;;;;17.71;33.13;95675.47;5118821;28;20278;-66
2023/10/09 08:56:25;;;;;;;1.60;1.50;;;;;;;17.85;33.21;95663.66;5118199;28;20219;-66
2023/10/09 08:58:55;;;;;;;2.03;1.30;;;;;;;17.99;32.64;95668.56;5119416;28;20184;-67
2023/10/09 09:01:24;;;;;;;1.88;1.55;;;;;;;18.08;31.89;95671.00;5118968;28;20188;-67
2023/10/09 09:03:55;;;;;;;1.63;1.40;;;;;;;18.16;32.50;95664.31;5118048;28;20282;-66
2023/10/09 09:06:24;;;;;;;1.70;1.60;;;;;;;18.27;32.07;95670.78;5119032;28;20232;-67
2023/10/09 09:08:59;;;;;;;2.35;1.80;;;;;;;18.32;31.77;95664.81;5118145;28;20299;-67
2023/10/09 09:11:35;;;;;;;1.73;1.52;;;;;;;18.44;31.94;95670.06;5117760;28;20226;-67
2023/10/09 09:14:04;;;;;;;2.42;1.35;;;;;;;18.61;31.35;95665.78;5118642;27;20239;-66
2023/10/09 09:16:35;;;;;;;1.38;1.27;;;;;;;18.58;30.14;95666.56;5119423;28;20218;-67
2023/10/09 09:19:17;;;;;;;2.13;1.90;;;;;;;18.65;30.71;95674.19;5134744;27;20199;-66
2023/10/09 09:21:54;;;;;;;2.28;1.40;;;;;;;18.79;30.93;95665.13;5118448;28;20207;-67
2023/10/09 09:24:30;;;;;;;1.30;1.20;;;;;;;18.87;30.75;95667.56;5118576;28;20615;-67
2023/10/09 09:27:18;;;;;;;2.97;1.50;;;;;;;18.89;30.24;95662.38;5117042;28;20647;-66
2023/10/09 09:29:52;;;;;;;1.30;1.20;;;;;;;18.98;30.35;95662.81;5117706;28;20196;-66
2023/10/09 09:32:29;;;;;;;2.05;1.50;;;;;;;19.11;30.49;95659.69;5118208;28;20191;-66
2023/10/09 09:35:00;;;;;;;2.60;1.40;;;;;;;19.18;29.54;95654.13;5118323;28;20244;-66
2023/10/09 09:37:50;;;;;;;2.53;1.45;;;;;;;19.15;28.76;95638.91;5118505;28;20248;-67
2023/10/09 09:40:29;;;;;;;3.70;1.40;;;;;;;19.08;29.42;95638.88;5118087;28;20256;-67
2023/10/09 09:43:05;;;;;;;3.92;1.80;;;;;;;19.06;29.09;95637.69;5118387;28;20595;-67
2023/10/09 09:45:36;;;;;;;1.85;1.60;;;;;;;19.17;29.56;95642.13;5117475;28;20203;-67
2023/10/09 09:48:06;;;;;;;4.60;1.50;;;;;;;19.33;29.52;95646.56;5118058;28;20215;-67
2023/10/09 09:50:36;;;;;;;2.63;1.30;;;;;;;19.40;28.62;95654.97;5118636;28;20192;-67
2023/10/09 09:53:16;;;;;;;2.97;1.55;;;;;;;19.33;27.75;95638.16;5117313;28;20622;-67
2023/10/09 09:55:55;;;;;;;2.83;1.40;;;;;;;19.37;28.38;95633.38;5117994;28;20219;-66
2023/10/09 09:58:26;;;;;;;1.40;1.30;;;;;;;19.46;28.78;95623.41;5116783;28;20615;-67
2023/10/09 10:01:15;;;;;;;1.58;1.48;;;;;;;19.59;28.30;95615.44;5118048;28;20188;-66
2023/10/09 10:04:04;;;;;;;1.42;1.33;;;;;;;19.52;27.12;95612.63;5117593;28;20200;-67
2023/10/09 10:06:32;;;;;;;3.63;1.60;;;;;;;19.53;27.63;95619.81;5117476;28;20250;-66
2023/10/09 10:09:08;;;;;;;1.48;1.35;;;;;;;19.63;28.20;95613.47;5118103;28;20180;-67
2023/10/09 10:11:51;;;;;;;1.40;1.30;;;;;;;19.74;27.31;95612.69;5117585;28;20290;-67
2023/10/09 10:14:28;;;;;;;1.52;1.42;;;;;;;19.91;27.91;95597.88;5117093;28;20195;-67
2023/10/09 10:17:16;;;;;;;1.52;1.40;;;;;;;20.01;27.23;95594.28;5117226;28;20187;-67
2023/10/09 10:20:31;;;;;;;2.30;1.65;;;;;;;20.05;27.56;95577.47;5117034;28;20557;-67
2023/10/09 10:23:25;;;;;;;3.00;1.40;;;;;;;20.11;27.30;95565.44;5117660;28;20187;-66
2023/10/09 10:26:00;;;;;;;1.40;1.30;;;;;;;20.12;27.63;95564.25;5117519;28;20470;-66
2023/10/09 10:28:42;;;;;;;1.55;1.45;;;;;;;20.20;27.66;95557.44;5116811;28;20252;-67
2023/10/09 10:31:15;;;;;;;1.50;1.40;;;;;;;20.22;27.58;95548.63;5116904;28;20231;-66
2023/10/09 10:34:11;;;;;;;1.70;1.60;;;;;;;20.24;27.41;95535.03;5117080;28;20238;-67
2023/10/09 10:36:43;;;;;;;1.50;1.40;;;;;;;20.33;27.21;95543.00;5117784;28;20595;-67
2023/10/09 10:39:21;;;;;;;2.13;1.40;;;;;;;20.30;26.99;95532.59;5116427;28;20195;-67
2023/10/09 10:42:05;;;;;;;1.42;1.33;;;;;;;20.39;27.69;95525.38;5117101;28;20241;-67
2023/10/09 10:44:45;;;;;;;1.77;1.55;;;;;;;20.48;27.35;95519.34;5117294;28;20211;-67
2023/10/09 10:47:32;;;;;;;1.65;1.40;;;;;;;20.52;27.43;95506.16;5101043;28;20242;-67
2023/10/09 10:50:11;;;;;;;1.50;1.40;;;;;;;20.55;27.39;95513.75;5117651;28;20295;-67
2023/10/09 10:52:44;;;;;;;1.50;1.40;;;;;;;20.56;27.35;95503.34;5117155;28;20211;-67
2023/10/09 10:58:23;;;;;;;2.55;1.70;;;;;;;20.59;27.28;95500.50;5116420;28;20309;-67
2023/10/09 11:01:13;;;;;;;1.40;1.30;;;;;;;20.56;27.30;95497.72;5117266;28;20262;-67
2023/10/09 11:03:59;;;;;;;1.30;1.20;;;;;;;20.62;28.20;95498.88;5117721;28;20227;-67
2023/10/09 11:06:36;;;;;;;1.50;1.40;;;;;;;20.60;27.58;95510.50;5116579;28;20246;-67
2023/10/09 11:09:35;;;;;;;1.45;1.35;;;;;;;20.59;26.82;95500.50;5117386;28;20240;-67
2023/10/09 11:12:22;;;;;;;2.22;1.50;;;;;;;20.65;27.31;95486.84;5116288;28;20199;-67
2023/10/09 11:15:05;;;;;;;1.98;1.40;;;;;;;20.76;27.55;95476.38;5116569;28;20210;-67
2023/10/09 11:17:35;;;;;;;2.88;1.50;;;;;;;20.77;28.14;95468.78;5132784;27;20577;-67
2023/10/09 11:20:22;;;;;;;2.10;1.60;;;;;;;20.78;27.91;95462.78;5115422;28;20219;-67
2023/10/09 11:25:37;;;;;;;1.70;1.60;;;;;;;20.82;27.31;95452.34;5117076;28;20316;-67
2023/10/09 11:28:27;;;;;;;1.50;1.40;;;;;;;20.88;27.76;95449.91;5116109;28;20215;-67
2023/10/09 11:31:11;;;;;;;1.60;1.50;;;;;;;20.90;27.13;95447.47;5132727;27;20204;-67
2023/10/09 11:33:48;;;;;;;1.65;1.50;;;;;;;20.96;26.98;95448.63;5116679;28;20195;-67
2023/10/09 11:36:16;;;;;;;2.53;1.80;;;;;;;20.98;27.41;95453.81;5115658;28;20256;-67
2023/10/09 11:38:45;;;;;;;2.40;2.20;;;;;;;20.99;27.25;95452.59;5115480;28;20191;-67
2023/10/09 11:41:23;;;;;;;2.38;1.90;;;;;;;21.02;27.10;95441.38;5116037;28;20231;-67
2023/10/09 11:43:57;;;;;;;1.88;1.70;;;;;;;21.09;27.94;95449.72;5116718;28;20183;-67
2023/10/09 11:46:49;;;;;;;1.77;1.65;;;;;;;21.16;26.52;95437.66;5116656;28;20184;-67
2023/10/09 11:49:26;;;;;;;2.55;1.48;;;;;;;21.18;27.16;95426.06;5115854;28;20207;-67
2023/10/09 11:54:56;;;;;;;1.65;1.40;;;;;;;21.14;26.06;95417.66;5116169;28;20622;-67
2023/10/09 11:57:33;;;;;;;1.70;1.60;;;;;;;21.14;26.50;95412.84;5115636;28;20576;-67
2023/10/09 12:00:10;;;;;;;1.52;1.42;;;;;;;21.16;26.75;95409.63;5116158;28;20199;-68
2023/10/09 12:02:43;;;;;;;1.90;1.70;;;;;;;21.20;27.00;95401.16;5114838;28;20207;-67
2023/10/09 12:05:16;;;;;;;1.75;1.65;;;;;;;21.28;26.58;95399.88;5115992;28;20235;-67
2023/10/09 12:07:51;;;;;;;1.30;1.20;;;;;;;21.29;25.97;95387.47;5115234;28;20310;-68
2023/10/09 12:10:24;;;;;;;1.30;1.20;;;;;;;21.23;26.17;95380.72;5116394;28;20297;-67
2023/10/09 12:12:53;;;;;;;1.50;1.40;;;;;;;21.22;25.81;95381.94;5116450;28;20241;-68
2023/10/09 12:15:20;;;;;;;2.00;1.80;;;;;;;21.22;25.41;95385.53;5115896;28;20336;-67
2023/10/09 12:17:55;;;;;;;2.08;1.30;;;;;;;21.22;25.91;95379.13;5116178;28;20479;-67
2023/10/09 12:20:34;;;;;;;3.22;1.50;;;;;;;21.28;25.53;95383.88;5116225;28;20176;-68
2023/10/09 12:23:05;;;;;;;2.20;1.65;;;;;;;21.35;23.96;95380.22;5116181;28;20275;-68
2023/10/09 12:25:35;;;;;;;1.50;1.40;;;;;;;21.35;23.35;95371.81;5115948;28;20200;-67
2023/10/09 12:28:04;;;;;;;1.30;1.20;;;;;;;21.31;23.32;95365.41;5115302;28;20223;-67
2023/10/09 12:30:39;;;;;;;1.50;1.40;;;;;;;21.34;24.21;95367.41;5116027;28;20575;-68
2023/10/09 12:33:15;;;;;;;2.25;1.48;;;;;;;21.35;24.11;95364.22;5115490;28;20282;-67
2023/10/09 12:35:45;;;;;;;1.92;1.60;;;;;;;21.36;24.10;95373.41;5116684;28;20193;-68
2023/10/09 12:38:18;;;;;;;1.80;1.70;;;;;;;21.41;23.13;95353.31;5115054;28;20188;-68
2023/10/09 12:40:52;;;;;;;1.40;1.30;;;;;;;21.42;23.17;95342.88;5114873;28;20244;-68
2023/10/09 12:43:22;;;;;;;1.92;1.35;;;;;;;21.43;22.85;95342.47;5115509;28;20202;-68
2023/10/09 12:45:51;;;;;;;2.15;1.63;;;;;;;21.46;22.31;95344.47;5115397;28;20556;-67
2023/10/09 12:48:23;;;;;;;1.83;1.70;;;;;;;21.49;21.49;95349.22;5115596;28;20247;-68
2023/10/09 12:50:53;;;;;;;4.88;1.67;;;;;;;21.52;21.99;95345.56;5115264;28;20192;-67
2023/10/09 12:53:22;;;;;;;1.92;1.40;;;;;;;21.55;21.81;95333.53;5115116;28;20630;-67
2023/10/09 12:55:49;;;;;;;2.08;1.20;;;;;;;21.54;21.74;95323.53;5115195;28;20196;-68
2023/10/09 12:58:21;;;;;;;1.50;1.40;;;;;;;21.50;22.16;95327.59;5115818;28;20270;-67
2023/10/09 13:00:53;;;;;;;2.22;1.48;;;;;;;21.53;22.03;95324.75;5114702;28;20547;-67
2023/10/09 13:03:32;;;;;;;1.65;1.55;;;;;;;21.57;21.37;95319.88;5118830;28;20180;-67
2023/10/09 13:06:07;;;;;;;1.40;1.30;;;;;;;21.63;21.18;95314.59;5119277;28;20307;-67
2023/10/09 13:08:36;;;;;;;1.85;1.75;;;;;;;21.71;21.35;95309.69;5118369;28;20635;-67
2023/10/09 13:11:10;;;;;;;2.50;1.80;;;;;;;21.75;22.15;95308.44;5119100;28;20176;-67
2023/10/09 13:13:46;;;;;;;1.83;1.45;;;;;;;21.77;21.04;95297.56;5118783;28;20244;-67
2023/10/09 13:16:23;;;;;;;4.60;1.98;;;;;;;21.85;21.44;95307.50;5118218;28;20191;-67
2023/10/09 13:19:09;;;;;;;2.17;1.90;;;;;;;21.99;21.76;95291.69;5117758;28;20591;-67
2023/10/09 13:21:39;;;;;;;2.05;1.60;;;;;;;22.02;22.09;95293.66;5117637;28;20222;-67
2023/10/09 13:24:12;;;;;;;2.67;1.77;;;;;;;22.05;22.40;95284.38;5117671;28;20198;-68
2023/10/09 13:26:41;;;;;;;2.65;1.70;;;;;;;22.14;22.38;95287.47;5117786;28;20199;-67
2023/10/09 13:29:11;;;;;;;1.95;1.73;;;;;;;22.22;21.98;95283.38;5118578;28;20231;-67
2023/10/09 13:31:46;;;;;;;1.85;1.75;;;;;;;22.26;21.56;95277.69;5120746;28;20195;-67
2023/10/09 13:34:27;;;;;;;1.70;1.60;;;;;;;22.26;22.34;95277.69;5117406;28;20203;-67
2023/10/09 13:36:56;;;;;;;1.75;1.60;;;;;;;22.25;22.11;95285.31;5118382;28;20215;-67
2023/10/09 13:39:28;;;;;;;3.13;1.65;;;;;;;22.32;22.25;95273.19;5117994;28;20204;-66
2023/10/09 13:42:06;;;;;;;2.65;2.00;;;;;;;22.68;21.54;95275.44;5118757;28;20184;-66
2023/10/09 13:44:41;;;;;;;2.10;1.63;;;;;;;23.20;21.39;95266.50;5118111;28;20260;-67
2023/10/09 13:47:19;;;;;;;2.00;1.80;;;;;;;23.68;21.09;95270.84;5118194;28;20563;-66